Time;durP1;ratioP1;P1;durP2;ratioP2;P2;SDS_P1;SDS_P2;PMS_P1;PMS_P2;Temp;Humidity;BMP_temperature;BMP_pressure;BME280_temperature;BME280_humidity;BME280_pressure;Samples;Min_cycle;Max_cycle;Signal;HPM_P1;HPM_P2
2022/08/05 00:07:21;;;;;;;5.90;5.40;;;;;;;18.58;56.88;99559.08;431230;1274;143159;-64
2022/08/05 00:17:47;;;;;;;11.10;5.40;;;;;;;18.46;57.33;99546.71;430257;1273;142104;-65
2022/08/05 00:27:53;;;;;;;8.00;5.80;;;;;;;18.34;57.63;99544.52;432854;1274;143259;-63
2022/08/05 00:38:00;;;;;;;6.30;5.70;;;;;;;18.27;58.02;99540.12;429894;1274;143774;-64
2022/08/05 00:48:08;;;;;;;7.40;5.90;;;;;;;18.15;58.19;99533.23;431801;1274;142578;-64
2022/08/05 00:58:16;;;;;;;5.20;4.70;;;;;;;17.97;58.48;99529.11;431891;1274;142639;-65
2022/08/05 01:08:24;;;;;;;5.40;4.90;;;;;;;17.80;58.89;99523.23;430745;1274;143365;-63
2022/08/05 01:18:53;;;;;;;7.20;5.90;;;;;;;17.70;59.29;99516.59;430171;1273;142461;-62
2022/08/05 01:29:04;;;;;;;6.50;5.40;;;;;;;17.73;59.57;99513.09;430524;1274;142672;-64
2022/08/05 01:39:12;;;;;;;5.10;4.60;;;;;;;17.75;59.50;99502.63;430769;1274;141890;-63
2022/08/05 01:49:24;;;;;;;6.50;5.90;;;;;;;17.78;59.53;99494.73;430997;1274;147428;-65
2022/08/05 01:59:54;;;;;;;7.20;6.60;;;;;;;17.77;59.65;99483.83;430190;1274;142475;-63
2022/08/05 02:10:05;;;;;;;7.20;5.20;;;;;;;17.74;59.86;99481.84;430703;1274;141847;-63
2022/08/05 02:20:18;;;;;;;4.80;4.40;;;;;;;17.67;60.13;99476.33;429581;1274;149582;-65
2022/08/05 02:30:29;;;;;;;8.20;5.00;;;;;;;17.60;60.51;99468.46;431186;1274;143117;-63
2022/08/05 02:40:35;;;;;;;5.40;4.10;;;;;;;17.52;61.01;99454.19;430839;1274;142315;-66
2022/08/05 02:50:42;;;;;;;7.30;5.40;;;;;;;17.45;61.49;99453.77;431787;1274;145613;-64
2022/08/05 03:00:50;;;;;;;7.40;4.70;;;;;;;17.40;61.82;99452.58;430654;1274;142991;-64
2022/08/05 03:10:56;;;;;;;8.90;5.30;;;;;;;17.31;62.36;99444.33;430160;1274;142358;-64
2022/08/05 03:21:22;;;;;;;5.00;4.60;;;;;;;17.29;62.92;99439.42;430033;1274;142339;-64
2022/08/05 03:31:34;;;;;;;6.80;5.30;;;;;;;17.27;63.21;99436.45;431098;1274;143045;-65
2022/08/05 03:42:00;;;;;;;7.10;5.20;;;;;;;17.30;63.62;99438.25;430358;1274;142607;-61
2022/08/05 03:52:11;;;;;;;7.20;5.60;;;;;;;17.37;63.91;99438.10;433727;1274;142314;-63
2022/08/05 04:02:39;;;;;;;6.10;5.20;;;;;;;17.52;64.00;99432.07;431044;1274;143498;-64
2022/08/05 04:13:03;;;;;;;10.30;5.80;;;;;;;17.72;63.98;99427.71;429660;1274;142844;-64
2022/08/05 04:23:10;;;;;;;7.40;5.50;;;;;;;17.97;63.90;99418.39;429815;1274;147187;-66
2022/08/05 04:33:20;;;;;;;6.10;5.50;;;;;;;21.41;61.88;99426.02;431662;1274;146745;-64
2022/08/05 04:43:46;;;;;;;6.20;5.10;;;;;;;24.42;53.42;99423.52;430517;1274;193642;-65
2022/08/05 04:53:57;;;;;;;6.30;4.90;;;;;;;21.89;54.89;99430.49;429690;1274;149762;-65
2022/08/05 05:04:06;;;;;;;8.90;5.00;;;;;;;21.57;56.43;99431.44;429858;1274;141739;-64
2022/08/05 05:14:12;;;;;;;5.20;3.80;;;;;;;29.25;49.57;99430.63;430187;1274;187172;-63
2022/08/05 05:24:21;;;;;;;4.00;3.30;;;;;;;36.27;39.57;99431.39;431544;1274;141596;-64
2022/08/05 05:34:46;;;;;;;3.60;3.30;;;;;;;39.94;32.31;99423.66;431675;1274;142900;-65
2022/08/05 05:44:57;;;;;;;3.00;2.50;;;;;;;42.46;28.43;99427.58;430157;1274;141854;-64
2022/08/05 05:55:05;;;;;;;3.30;2.50;;;;;;;45.40;25.21;99426.84;446429;1273;142641;-64
2022/08/05 06:05:19;;;;;;;2.40;2.30;;;;;;;46.43;22.07;99422.55;430143;1274;141612;-64
2022/08/05 06:15:25;;;;;;;2.90;2.60;;;;;;;47.61;20.91;99424.84;430738;1274;141487;-64
2022/08/05 06:25:51;;;;;;;5.30;2.30;;;;;;;49.71;18.91;99429.70;430834;1274;145745;-65
2022/08/05 06:36:17;;;;;;;4.00;2.30;;;;;;;50.40;17.40;99422.50;430543;1274;142000;-63
2022/08/05 06:46:30;;;;;;;5.30;3.10;;;;;;;50.75;16.68;99409.30;432276;1274;197542;-63
2022/08/05 06:56:36;;;;;;;3.70;3.40;;;;;;;49.99;17.00;99404.52;429746;1274;146812;-64
2022/08/05 07:06:42;;;;;;;3.70;3.40;;;;;;;50.56;16.42;99401.04;431617;1274;141126;-64
2022/08/05 07:16:51;;;;;;;7.40;4.00;;;;;;;50.74;16.29;99397.52;430393;1274;146117;-63
2022/08/05 07:27:16;;;;;;;5.30;5.00;;;;;;;51.03;15.40;99392.92;430905;1276;147016;-63
2022/08/05 07:37:22;;;;;;;4.40;4.00;;;;;;;49.15;16.22;99385.49;430131;1274;145731;-63
2022/08/05 07:47:33;;;;;;;5.70;5.20;;;;;;;50.16;15.84;99390.30;430713;1274;141954;-63
2022/08/05 07:57:47;;;;;;;5.50;5.30;;;;;;;51.27;15.30;99383.98;430371;1274;146273;-64
2022/08/05 08:08:07;;;;;;;5.90;5.60;;;;;;;52.15;14.43;99377.59;430147;1274;142412;-64
2022/08/05 08:18:17;;;;;;;1.80;1.70;;;;;;;51.20;14.19;99371.44;447137;1273;145017;-64
2022/08/05 08:28:25;;;;;;;3.80;2.10;;;;;;;43.79;17.39;99366.89;446968;1274;142621;-64
2022/08/05 08:38:42;;;;;;;2.60;2.00;;;;;;;37.17;22.47;99374.30;443769;1273;141133;-64
2022/08/05 08:48:58;;;;;;;4.10;2.30;;;;;;;34.24;25.73;99378.23;447184;1274;141946;-64
2022/08/05 08:59:24;;;;;;;4.60;2.20;;;;;;;33.53;26.42;99379.02;446271;1272;143116;-64
2022/08/05 09:09:38;;;;;;;3.30;2.20;;;;;;;33.03;27.66;99372.86;442287;1274;141876;-64
2022/08/05 09:19:44;;;;;;;2.30;2.00;;;;;;;32.63;28.30;99363.59;446376;1274;142346;-64
2022/08/05 09:30:09;;;;;;;4.40;2.20;;;;;;;32.22;29.09;99360.36;446957;1273;141851;-63
2022/08/05 09:40:39;;;;;;;2.40;2.20;;;;;;;31.64;29.78;99352.92;446876;1272;144116;-64
2022/08/05 09:50:59;;;;;;;4.20;2.20;;;;;;;30.94;30.87;99346.48;447080;1273;142608;-65
2022/08/05 10:01:07;;;;;;;2.40;2.30;;;;;;;30.69;31.91;99340.92;447075;1274;142246;-64
2022/08/05 10:11:19;;;;;;;2.20;2.10;;;;;;;30.72;32.16;99334.36;446352;1274;142303;-64
2022/08/05 10:21:27;;;;;;;2.70;2.50;;;;;;;30.64;32.73;99324.95;446126;1274;142351;-63
2022/08/05 10:31:44;;;;;;;3.10;2.80;;;;;;;30.40;33.09;99308.87;446333;1274;141873;-63
2022/08/05 10:42:16;;;;;;;4.50;2.80;;;;;;;30.20;33.65;99313.89;447089;1274;143933;-64
2022/08/05 10:52:40;;;;;;;6.80;2.60;;;;;;;29.93;34.04;99297.63;446937;1274;142914;-64
2022/08/05 11:03:16;;;;;;;2.40;2.20;;;;;;;30.03;33.10;99294.65;447122;1274;144964;-64
2022/08/05 11:13:45;;;;;;;3.50;2.50;;;;;;;29.77;33.76;99281.77;446979;1273;142176;-63
2022/08/05 11:24:08;;;;;;;2.50;2.30;;;;;;;29.67;33.92;99280.05;446142;1274;1264207;-65
2022/08/05 11:34:40;;;;;;;3.10;2.90;;;;;;;29.83;33.67;99280.77;446941;1274;143744;-65
2022/08/05 11:45:04;;;;;;;3.80;2.20;;;;;;;29.87;33.43;99279.58;446953;1274;141938;-64
2022/08/05 11:55:28;;;;;;;3.10;2.20;;;;;;;29.86;33.04;99279.97;447107;1274;141848;-64
2022/08/05 12:05:40;;;;;;;4.10;2.20;;;;;;;29.96;32.78;99275.88;447022;1274;142863;-65
2022/08/05 12:15:48;;;;;;;4.50;3.30;;;;;;;30.09;32.92;99271.98;446921;1274;186282;-64
2022/08/05 12:26:00;;;;;;;2.40;2.30;;;;;;;30.08;33.01;99261.98;446183;1272;161820;-64
2022/08/05 12:36:08;;;;;;;6.50;2.30;;;;;;;30.11;32.63;99255.08;435020;1275;141191;-63
2022/08/05 12:46:22;;;;;;;2.40;2.30;;;;;;;30.14;32.65;99255.20;446948;1274;142070;-64
2022/08/05 12:56:33;;;;;;;3.20;2.80;;;;;;;30.22;32.51;99246.13;446228;1272;144197;-65
2022/08/05 13:06:44;;;;;;;2.70;2.40;;;;;;;30.33;32.29;99231.52;443881;1274;142268;-64
2022/08/05 13:16:58;;;;;;;2.60;2.40;;;;;;;30.43;31.90;99228.60;441571;1273;141845;-65
2022/08/05 13:27:04;;;;;;;2.90;2.40;;;;;;;30.49;31.57;99221.84;447054;1274;142058;-65
2022/08/05 13:37:15;;;;;;;3.80;2.60;;;;;;;30.50;31.17;99209.83;447073;1274;143466;-64
2022/08/05 13:47:39;;;;;;;2.70;2.50;;;;;;;30.69;30.97;99207.33;447091;1274;141716;-64
2022/08/05 13:58:04;;;;;;;3.00;2.50;;;;;;;30.97;31.21;99197.64;447074;1273;143247;-64
2022/08/05 14:08:10;;;;;;;4.00;3.00;;;;;;;31.09;30.98;99190.75;441023;1274;145239;-64
2022/08/05 14:18:32;;;;;;;2.50;1.90;;;;;;;31.06;30.42;99186.64;431087;1273;142467;-65
2022/08/05 14:28:38;;;;;;;3.70;1.80;;;;;;;31.14;29.81;99179.96;430120;1274;141545;-65
2022/08/05 14:38:57;;;;;;;1.50;1.40;;;;;;;31.23;29.47;99174.34;430364;1274;208009;-64
2022/08/05 14:49:07;;;;;;;2.00;1.90;;;;;;;31.27;29.36;99179.65;430645;1274;142099;-64
2022/08/05 14:59:13;;;;;;;1.70;1.60;;;;;;;31.23;29.56;99175.89;431113;1273;141587;-64
2022/08/05 15:09:20;;;;;;;2.60;1.80;;;;;;;31.16;29.51;99169.27;431514;1274;141589;-63
2022/08/05 15:19:46;;;;;;;3.20;2.30;;;;;;;31.00;29.43;99167.13;429739;1274;142687;-63
2022/08/05 15:29:53;;;;;;;3.70;2.10;;;;;;;30.99;29.81;99159.85;431918;1274;142993;-64
2022/08/05 15:40:01;;;;;;;2.60;2.40;;;;;;;31.24;30.05;99146.83;429994;1274;143620;-63
2022/08/05 15:50:27;;;;;;;8.00;2.40;;;;;;;31.48;30.10;99143.38;429254;1274;145164;-63
2022/08/05 16:00:34;;;;;;;2.90;2.60;;;;;;;31.64;30.56;99145.02;431267;1274;141992;-63
2022/08/05 16:11:00;;;;;;;2.50;2.40;;;;;;;31.66;30.45;99153.14;429722;1275;161538;-62
2022/08/05 16:21:06;;;;;;;2.00;1.90;;;;;;;31.53;30.36;99155.98;429735;1273;140982;-63
2022/08/05 16:31:12;;;;;;;2.30;2.20;;;;;;;31.24;30.79;99146.79;429812;1274;143077;-63
2022/08/05 16:41:19;;;;;;;3.70;2.60;;;;;;;30.91;31.25;99149.08;428516;1274;141764;-62
2022/08/05 16:51:46;;;;;;;5.70;2.90;;;;;;;30.56;31.78;99143.23;429963;1273;142615;-64
2022/08/05 17:01:59;;;;;;;7.20;2.70;;;;;;;30.36;32.11;99139.52;445403;1274;141883;-64
2022/08/05 17:12:06;;;;;;;3.30;3.00;;;;;;;30.26;32.57;99140.85;431886;1273;142344;-64
2022/08/05 17:22:17;;;;;;;2.60;2.40;;;;;;;30.14;32.94;99135.84;446612;1274;141473;-64
2022/08/05 17:32:30;;;;;;;4.60;3.20;;;;;;;30.93;32.80;99145.77;445677;1274;142645;-65
2022/08/05 17:42:40;;;;;;;3.80;3.30;;;;;;;30.36;33.40;99141.36;441695;1273;142888;-63
2022/08/05 17:52:57;;;;;;;3.90;3.60;;;;;;;29.77;33.93;99142.16;428891;1274;142439;-64
2022/08/05 18:03:03;;;;;;;4.60;3.10;;;;;;;29.19;35.11;99139.82;431356;1275;141025;-63
2022/08/05 18:13:12;;;;;;;7.90;3.80;;;;;;;28.62;36.19;99144.20;430894;1274;142114;-63
2022/08/05 18:23:18;;;;;;;5.40;2.90;;;;;;;28.08;37.40;99149.48;429425;1275;142658;-64
2022/08/05 18:33:26;;;;;;;4.60;4.10;;;;;;;27.59;38.18;99165.70;430387;1274;141993;-62
2022/08/05 18:43:51;;;;;;;4.70;3.70;;;;;;;27.16;39.23;99169.33;429176;1274;142891;-63
2022/08/05 18:53:57;;;;;;;6.50;4.10;;;;;;;26.80;39.90;99180.97;430678;1274;141223;-63
2022/08/05 19:04:03;;;;;;;7.60;5.10;;;;;;;26.43;41.01;99190.05;431672;1273;142496;-63
2022/08/05 19:14:10;;;;;;;5.50;4.40;;;;;;;26.06;41.79;99185.66;430398;1274;142815;-62
2022/08/05 19:24:36;;;;;;;6.10;4.30;;;;;;;25.75;42.60;99183.88;430426;1274;145012;-64
2022/08/05 19:34:59;;;;;;;7.40;4.70;;;;;;;25.53;43.40;99183.30;429973;1275;144876;-65
2022/08/05 19:45:12;;;;;;;6.50;4.50;;;;;;;25.28;43.91;99184.59;431949;1274;141740;-61
2022/08/05 19:55:19;;;;;;;8.00;4.80;;;;;;;25.02;44.60;99182.02;431033;1274;142018;-64
2022/08/05 20:05:45;;;;;;;9.90;5.90;;;;;;;24.73;45.74;99184.89;431735;1274;141355;-64
2022/08/05 20:15:56;;;;;;;8.30;5.00;;;;;;;24.43;46.91;99180.39;430747;1274;143734;-63
2022/08/05 20:26:02;;;;;;;13.00;5.40;;;;;;;24.15;47.42;99182.35;430020;1274;142194;-63
2022/08/05 20:36:10;;;;;;;6.10;5.50;;;;;;;23.90;48.30;99190.41;429707;1276;142316;-66
2022/08/05 20:46:18;;;;;;;8.10;5.70;;;;;;;23.67;48.94;99192.05;430421;1274;141107;-64
2022/08/05 20:56:30;;;;;;;7.90;6.00;;;;;;;23.55;49.40;99189.85;430331;1274;142478;-64
2022/08/05 21:06:47;;;;;;;13.30;7.30;;;;;;;23.43;49.48;99189.30;430058;1274;140959;-65
2022/08/05 21:16:55;;;;;;;7.00;5.90;;;;;;;23.30;50.03;99190.73;432020;1274;141469;-64
2022/08/05 21:27:01;;;;;;;8.30;5.90;;;;;;;23.19;50.37;99194.11;429997;1274;142261;-62
2022/08/05 21:37:07;;;;;;;13.70;8.10;;;;;;;23.13;50.68;99192.31;429876;1274;142262;-64
2022/08/05 21:47:14;;;;;;;12.50;11.20;;;;;;;22.99;51.50;99198.30;429841;1274;143064;-64
2022/08/05 21:57:39;;;;;;;13.90;10.30;;;;;;;22.83;52.62;99203.64;429938;1275;141719;-65
2022/08/05 22:07:48;;;;;;;9.10;7.40;;;;;;;22.67;53.44;99222.59;429766;1274;142545;-64
2022/08/05 22:18:07;;;;;;;6.00;5.40;;;;;;;22.67;53.29;99274.38;430784;1274;140842;-62
2022/08/05 22:28:15;;;;;;;7.50;6.30;;;;;;;22.87;52.28;99277.35;430597;1274;143180;-64
2022/08/05 22:38:22;;;;;;;7.70;6.90;;;;;;;22.82;52.31;99273.87;429948;1274;141803;-63
2022/08/05 22:48:30;;;;;;;6.50;6.00;;;;;;;22.80;52.60;99275.95;430479;1274;141877;-64
2022/08/05 22:58:36;;;;;;;6.80;6.20;;;;;;;22.90;53.12;99272.66;430331;1274;144448;-65
2022/08/05 23:08:48;;;;;;;9.70;6.60;;;;;;;22.92;53.56;99270.54;430494;1274;146472;-64
2022/08/05 23:18:56;;;;;;;8.10;7.20;;;;;;;22.91;54.29;99265.98;430320;1274;142168;-65
2022/08/05 23:29:02;;;;;;;7.90;5.60;;;;;;;22.85;54.66;99263.95;428735;1274;1281818;-64
2022/08/05 23:39:10;;;;;;;8.10;6.10;;;;;;;22.78;55.15;99277.16;431329;1274;146277;-62
2022/08/05 23:49:28;;;;;;;22.60;7.30;;;;;;;22.72;55.81;99282.36;435100;1274;141965;-64
2022/08/05 23:59:41;;;;;;;6.70;6.20;;;;;;;22.61;56.34;99283.62;433872;1274;141792;-63
